Time;durP1;ratioP1;P1;durP2;ratioP2;P2;SDS_P1;SDS_P2;PMS_P1;PMS_P2;Temp;Humidity;BMP_temperature;BMP_pressure;BME280_temperature;BME280_humidity;BME280_pressure;Samples;Min_cycle;Max_cycle;Signal;HPM_P1;HPM_P2
2021/08/12 00:02:14;;;;;;;24.73;11.77;;;;;;;;;;4983762;28;20038;-63
2021/08/12 00:04:42;;;;;;;54.30;13.82;;;;;;;;;;4979057;28;20386;-64
2021/08/12 00:07:08;;;;;;;137.40;17.65;;;;;;;;;;4997441;28;20121;-62
2021/08/12 00:09:38;;;;;;;33.75;14.75;;;;;;;;;;4976779;28;20038;-62
2021/08/12 00:12:04;;;;;;;30.17;13.45;;;;;;;;;;4982814;28;20038;-62
2021/08/12 00:14:32;;;;;;;28.23;16.08;;;;;;;;;;4980556;28;20044;-63
2021/08/12 00:17:00;;;;;;;26.02;13.85;;;;;;;;;;4988043;28;20045;-62
2021/08/12 00:19:29;;;;;;;23.40;13.02;;;;;;;;;;4978643;28;20040;-63
2021/08/12 00:21:54;;;;;;;25.73;14.27;;;;;;;;;;4985238;28;20071;-63
2021/08/12 00:24:22;;;;;;;20.33;11.45;;;;;;;;;;4995781;28;20037;-62
2021/08/12 00:26:48;;;;;;;22.27;12.68;;;;;;;;;;4994751;28;21058;-62
2021/08/12 00:29:16;;;;;;;22.73;12.73;;;;;;;;;;4996130;28;20784;-63
2021/08/12 00:31:45;;;;;;;20.55;11.77;;;;;;;;;;4996755;28;20045;-62
2021/08/12 00:34:12;;;;;;;21.05;12.65;;;;;;;;;;4998729;28;20053;-62
2021/08/12 00:36:38;;;;;;;26.17;13.82;;;;;;;;;;4999327;28;22206;-61
2021/08/12 00:39:04;;;;;;;18.65;11.80;;;;;;;;;;4981228;28;20034;-62
2021/08/12 00:41:35;;;;;;;19.25;11.68;;;;;;;;;;4987505;28;20065;-63
2021/08/12 00:44:03;;;;;;;17.20;11.52;;;;;;;;;;4984923;28;20030;-63
2021/08/12 00:46:31;;;;;;;18.77;11.23;;;;;;;;;;5000109;28;21978;-64
2021/08/12 00:48:59;;;;;;;14.30;9.68;;;;;;;;;;5000509;28;20026;-63
2021/08/12 00:51:28;;;;;;;14.88;9.73;;;;;;;;;;4987842;28;20032;-63
2021/08/12 00:53:56;;;;;;;16.77;8.88;;;;;;;;;;4999214;28;20032;-62
2021/08/12 00:56:22;;;;;;;12.57;8.13;;;;;;;;;;4982156;28;20021;-62
2021/08/12 00:58:51;;;;;;;13.05;8.95;;;;;;;;;;4998644;28;20080;-62
2021/08/12 01:01:20;;;;;;;13.25;8.63;;;;;;;;;;4999411;28;20083;-62
2021/08/12 01:03:47;;;;;;;13.10;9.13;;;;;;;;;;4981391;28;20021;-63
2021/08/12 01:06:15;;;;;;;13.65;9.75;;;;;;;;;;4965887;28;21047;-63
2021/08/12 01:09:02;;;;;;;13.90;9.48;;;;;;;;;;4999331;28;20053;-63
2021/08/12 01:11:39;;;;;;;16.35;9.27;;;;;;;;;;4998297;28;20029;-64
2021/08/12 01:14:10;;;;;;;15.13;9.85;;;;;;;;;;5000687;28;20037;-62
2021/08/12 01:16:42;;;;;;;12.75;8.18;;;;;;;;;;5000045;28;20068;-62
2021/08/12 01:19:10;;;;;;;16.83;9.60;;;;;;;;;;5000289;28;20029;-62
2021/08/12 01:21:38;;;;;;;25.10;12.68;;;;;;;;;;4998612;28;20048;-63
2021/08/12 01:24:09;;;;;;;25.70;11.05;;;;;;;;;;4999355;28;20029;-62
2021/08/12 01:26:35;;;;;;;19.10;10.75;;;;;;;;;;5000767;28;20029;-62
2021/08/12 01:29:06;;;;;;;16.73;10.05;;;;;;;;;;5000139;28;20108;-62
2021/08/12 01:31:46;;;;;;;19.92;9.93;;;;;;;;;;4999321;28;20494;-62
2021/08/12 01:34:41;;;;;;;24.80;10.60;;;;;;;;;;5000126;28;20081;-62
2021/08/12 01:37:09;;;;;;;20.77;11.55;;;;;;;;;;4982392;28;20053;-62
2021/08/12 01:39:38;;;;;;;24.42;11.18;;;;;;;;;;4999371;28;20071;-62
2021/08/12 01:42:05;;;;;;;24.58;11.38;;;;;;;;;;5000381;28;20037;-62
2021/08/12 01:44:32;;;;;;;22.48;10.90;;;;;;;;;;4982885;28;20064;-63
2021/08/12 01:46:58;;;;;;;27.00;11.70;;;;;;;;;;4995740;28;21919;-63
2021/08/12 01:49:26;;;;;;;29.95;10.30;;;;;;;;;;4997501;28;20029;-63
2021/08/12 01:51:56;;;;;;;23.27;10.77;;;;;;;;;;4999243;28;20652;-64
2021/08/12 01:54:27;;;;;;;38.28;13.35;;;;;;;;;;4997746;28;20087;-62
2021/08/12 01:56:55;;;;;;;50.88;14.55;;;;;;;;;;4999147;28;20037;-63
2021/08/12 01:59:22;;;;;;;41.22;15.00;;;;;;;;;;4997843;28;20049;-63
2021/08/12 02:01:50;;;;;;;61.83;16.80;;;;;;;;;;4996737;28;21064;-63
2021/08/12 02:04:16;;;;;;;65.13;16.95;;;;;;;;;;4998826;28;20140;-62
2021/08/12 02:06:47;;;;;;;136.50;21.77;;;;;;;;;;4997274;28;20057;-62
2021/08/12 02:09:13;;;;;;;69.75;20.13;;;;;;;;;;4997472;28;20084;-62
2021/08/12 02:11:43;;;;;;;75.10;19.20;;;;;;;;;;4981084;28;20029;-62
2021/08/12 02:14:11;;;;;;;76.15;19.92;;;;;;;;;;4978644;28;20451;-63
2021/08/12 02:16:36;;;;;;;58.40;18.35;;;;;;;;;;4975714;28;20030;-63
2021/08/12 02:19:05;;;;;;;38.88;17.48;;;;;;;;;;4998570;28;20037;-63
2021/08/12 02:21:36;;;;;;;61.20;18.90;;;;;;;;;;4995876;28;20065;-62
2021/08/12 02:24:15;;;;;;;42.97;17.13;;;;;;;;;;4997816;28;20113;-62
2021/08/12 02:26:46;;;;;;;49.83;18.08;;;;;;;;;;4996861;28;20646;-62
2021/08/12 02:29:15;;;;;;;43.83;18.25;;;;;;;;;;4997211;28;20060;-63
2021/08/12 02:31:44;;;;;;;46.75;16.58;;;;;;;;;;4979028;28;20037;-63
2021/08/12 02:34:17;;;;;;;49.78;18.00;;;;;;;;;;4996412;28;20045;-63
2021/08/12 02:36:46;;;;;;;54.05;16.85;;;;;;;;;;4995453;28;20030;-63
2021/08/12 02:39:12;;;;;;;30.40;15.45;;;;;;;;;;4995447;28;20059;-62
2021/08/12 02:41:38;;;;;;;34.88;14.23;;;;;;;;;;4996268;28;20052;-62
2021/08/12 02:44:07;;;;;;;37.83;17.35;;;;;;;;;;4996186;28;20044;-63
2021/08/12 02:46:32;;;;;;;22.10;14.15;;;;;;;;;;4996313;28;20855;-63
2021/08/12 02:49:00;;;;;;;25.35;14.82;;;;;;;;;;4995043;28;20034;-63
2021/08/12 02:51:27;;;;;;;32.42;16.23;;;;;;;;;;4979021;28;20524;-64
2021/08/12 02:53:52;;;;;;;23.38;15.02;;;;;;;;;;4997084;28;20784;-63
2021/08/12 02:56:21;;;;;;;24.08;15.27;;;;;;;;;;4996102;28;20033;-62
2021/08/12 02:58:46;;;;;;;23.30;13.98;;;;;;;;;;4984066;28;20147;-63
2021/08/12 03:01:18;;;;;;;25.70;14.98;;;;;;;;;;4994718;28;20041;-63
2021/08/12 03:03:44;;;;;;;28.40;15.48;;;;;;;;;;4996219;28;20071;-62
2021/08/12 03:06:17;;;;;;;26.13;15.85;;;;;;;;;;4995891;28;20018;-63
2021/08/12 03:08:51;;;;;;;28.35;16.45;;;;;;;;;;4995697;28;20064;-63
2021/08/12 03:11:18;;;;;;;27.70;14.82;;;;;;;;;;4997074;28;20060;-63
2021/08/12 03:13:49;;;;;;;25.00;15.02;;;;;;;;;;4980845;28;20113;-63
2021/08/12 03:16:18;;;;;;;27.75;15.98;;;;;;;;;;4995132;28;20045;-63
2021/08/12 03:18:43;;;;;;;24.17;14.18;;;;;;;;;;4998347;28;20496;-63
2021/08/12 03:21:14;;;;;;;27.55;15.25;;;;;;;;;;4995889;28;20125;-63
2021/08/12 03:23:41;;;;;;;25.73;13.82;;;;;;;;;;4995803;28;20638;-64
2021/08/12 03:26:11;;;;;;;27.77;14.38;;;;;;;;;;4995748;28;20033;-63
2021/08/12 03:28:39;;;;;;;36.80;17.83;;;;;;;;;;4983547;28;20041;-63
2021/08/12 03:31:05;;;;;;;32.33;17.00;;;;;;;;;;4998884;28;20030;-64
2021/08/12 03:33:33;;;;;;;28.33;15.82;;;;;;;;;;4995419;28;20040;-63
2021/08/12 03:36:01;;;;;;;30.10;16.65;;;;;;;;;;4996421;28;20046;-64
2021/08/12 03:38:27;;;;;;;29.30;17.48;;;;;;;;;;4996065;28;20029;-64
2021/08/12 03:40:53;;;;;;;31.60;17.27;;;;;;;;;;4996398;28;20042;-64
2021/08/12 03:43:18;;;;;;;33.08;18.35;;;;;;;;;;4960753;28;20034;-63
2021/08/12 03:45:45;;;;;;;29.90;17.33;;;;;;;;;;4996800;28;20142;-63
2021/08/12 03:48:15;;;;;;;34.03;18.50;;;;;;;;;;4978797;28;20025;-63
2021/08/12 03:50:41;;;;;;;35.08;19.42;;;;;;;;;;4997306;28;22607;-64
2021/08/12 03:53:09;;;;;;;34.83;19.48;;;;;;;;;;4994285;28;20036;-63
2021/08/12 03:55:40;;;;;;;32.00;17.77;;;;;;;;;;4979083;28;20038;-63
2021/08/12 03:58:05;;;;;;;38.08;18.92;;;;;;;;;;4995173;28;20114;-63
2021/08/12 04:00:31;;;;;;;36.70;19.83;;;;;;;;;;4976324;28;20162;-63
2021/08/12 04:02:59;;;;;;;34.85;20.55;;;;;;;;;;4995192;28;20190;-63
2021/08/12 04:05:27;;;;;;;38.58;21.00;;;;;;;;;;4992468;28;20092;-63
2021/08/12 04:07:55;;;;;;;35.83;19.63;;;;;;;;;;4992607;28;20045;-63
2021/08/12 04:10:21;;;;;;;34.85;19.17;;;;;;;;;;4965392;28;20041;-63
2021/08/12 04:12:49;;;;;;;31.10;17.05;;;;;;;;;;4967136;28;20413;-63
2021/08/12 04:15:14;;;;;;;38.72;18.40;;;;;;;;;;4970329;28;20045;-63
2021/08/12 04:17:42;;;;;;;38.03;18.35;;;;;;;;;;4998705;28;22124;-61
2021/08/12 04:20:10;;;;;;;35.65;19.33;;;;;;;;;;4998551;28;22001;-61
2021/08/12 04:22:38;;;;;;;30.92;17.35;;;;;;;;;;4999722;28;20025;-62
2021/08/12 04:25:05;;;;;;;29.55;17.38;;;;;;;;;;4999833;28;22040;-62
2021/08/12 04:27:32;;;;;;;30.38;17.80;;;;;;;;;;4998264;28;20030;-63
2021/08/12 04:30:00;;;;;;;29.25;17.15;;;;;;;;;;4982930;28;20620;-62
2021/08/12 04:32:28;;;;;;;35.53;17.95;;;;;;;;;;4997433;28;20048;-62
2021/08/12 04:34:53;;;;;;;26.92;16.65;;;;;;;;;;4977837;28;20125;-62
2021/08/12 04:37:19;;;;;;;30.75;16.48;;;;;;;;;;4994779;28;20037;-63
2021/08/12 04:39:57;;;;;;;27.95;16.17;;;;;;;;;;4981544;28;20042;-62
2021/08/12 04:42:25;;;;;;;28.55;15.38;;;;;;;;;;4982856;28;20037;-63
2021/08/12 04:44:53;;;;;;;34.45;15.40;;;;;;;;;;4964837;28;20042;-62
2021/08/12 04:47:21;;;;;;;27.13;15.88;;;;;;;;;;4997303;28;20030;-63
2021/08/12 04:49:50;;;;;;;24.05;15.32;;;;;;;;;;4985622;28;20033;-62
2021/08/12 04:52:16;;;;;;;29.27;15.15;;;;;;;;;;4971086;28;20038;-62
2021/08/12 04:54:41;;;;;;;27.58;15.73;;;;;;;;;;4996340;28;20881;-63
2021/08/12 04:57:08;;;;;;;29.13;15.13;;;;;;;;;;4996466;28;21106;-62
2021/08/12 04:59:35;;;;;;;27.75;15.75;;;;;;;;;;4985947;28;20092;-63
2021/08/12 05:02:04;;;;;;;21.65;13.43;;;;;;;;;;5000261;28;20125;-62
2021/08/12 05:04:29;;;;;;;23.60;15.23;;;;;;;;;;4980676;28;20030;-62
2021/08/12 05:06:56;;;;;;;23.33;14.68;;;;;;;;;;4995879;28;20129;-63
2021/08/12 05:09:22;;;;;;;28.73;13.45;;;;;;;;;;4985381;28;20465;-63
2021/08/12 05:11:53;;;;;;;24.30;13.25;;;;;;;;;;4985590;28;20034;-63
2021/08/12 05:14:20;;;;;;;22.23;12.65;;;;;;;;;;4999087;28;20104;-62
2021/08/12 05:16:45;;;;;;;21.05;12.68;;;;;;;;;;4985425;28;20489;-62
2021/08/12 05:19:11;;;;;;;22.50;10.98;;;;;;;;;;4988387;28;20049;-63
2021/08/12 05:21:39;;;;;;;18.25;11.10;;;;;;;;;;4994380;28;20038;-62
2021/08/12 05:24:05;;;;;;;16.10;11.13;;;;;;;;;;4992468;28;20034;-63
2021/08/12 05:26:31;;;;;;;13.07;9.82;;;;;;;;;;4982096;28;20033;-62
2021/08/12 05:28:57;;;;;;;18.02;10.18;;;;;;;;;;4998290;28;20033;-62
2021/08/12 05:31:24;;;;;;;16.05;9.63;;;;;;;;;;4983020;28;20034;-63
2021/08/12 05:33:50;;;;;;;20.27;9.98;;;;;;;;;;4997799;28;20042;-63
2021/08/12 05:36:15;;;;;;;21.52;10.68;;;;;;;;;;4980473;28;20049;-63
2021/08/12 05:38:41;;;;;;;18.20;8.85;;;;;;;;;;4979653;28;20150;-63
2021/08/12 05:41:10;;;;;;;16.15;10.00;;;;;;;;;;4996342;28;20045;-63
2021/08/12 05:43:35;;;;;;;13.30;9.65;;;;;;;;;;4979637;28;20163;-64
2021/08/12 05:46:08;;;;;;;13.68;9.50;;;;;;;;;;4981494;28;20038;-63
2021/08/12 05:48:36;;;;;;;14.68;9.05;;;;;;;;;;4980119;28;20473;-63
2021/08/12 05:51:04;;;;;;;10.95;8.10;;;;;;;;;;4980993;28;20101;-64
2021/08/12 05:53:32;;;;;;;14.63;7.45;;;;;;;;;;4982588;28;20029;-63
2021/08/12 05:56:02;;;;;;;12.18;6.82;;;;;;;;;;4995385;28;20129;-63
2021/08/12 05:58:37;;;;;;;11.65;7.28;;;;;;;;;;4980815;28;20156;-64
2021/08/12 06:01:03;;;;;;;11.65;7.60;;;;;;;;;;4979833;28;20316;-62
2021/08/12 06:03:31;;;;;;;13.70;7.63;;;;;;;;;;4978743;28;20485;-63
2021/08/12 06:05:57;;;;;;;11.95;7.28;;;;;;;;;;4976406;28;20049;-63
2021/08/12 06:08:22;;;;;;;13.10;8.05;;;;;;;;;;4978329;28;20046;-63
2021/08/12 06:10:48;;;;;;;10.20;7.07;;;;;;;;;;4978740;28;20038;-62
2021/08/12 06:13:16;;;;;;;14.63;7.30;;;;;;;;;;4979189;28;22158;-63
2021/08/12 06:15:47;;;;;;;10.85;6.68;;;;;;;;;;4962831;28;20065;-62
2021/08/12 06:18:16;;;;;;;13.32;6.47;;;;;;;;;;4995003;28;20057;-63
2021/08/12 06:20:45;;;;;;;10.98;6.90;;;;;;;;;;4994115;28;21973;-63
2021/08/12 06:23:10;;;;;;;12.77;6.95;;;;;;;;;;4991200;28;20037;-63
2021/08/12 06:25:36;;;;;;;10.82;6.75;;;;;;;;;;4980700;28;20034;-61
2021/08/12 06:28:04;;;;;;;12.85;6.22;;;;;;;;;;4977047;28;21138;-63
2021/08/12 06:30:30;;;;;;;10.48;7.03;;;;;;;;;;4979016;28;21263;-63
2021/08/12 06:32:55;;;;;;;10.27;6.32;;;;;;;;;;4961095;28;20065;-62
2021/08/12 06:35:21;;;;;;;13.73;6.60;;;;;;;;;;4978910;28;20062;-63
2021/08/12 06:37:50;;;;;;;9.70;6.88;;;;;;;;;;4977830;28;20041;-62
2021/08/12 06:40:17;;;;;;;11.15;6.50;;;;;;;;;;4995019;28;21944;-63
2021/08/12 06:42:42;;;;;;;8.05;5.72;;;;;;;;;;4978914;28;20073;-62
2021/08/12 06:45:15;;;;;;;10.30;7.03;;;;;;;;;;4978236;28;20627;-63
2021/08/12 06:47:40;;;;;;;9.40;6.47;;;;;;;;;;4994134;28;20670;-62
2021/08/12 06:50:06;;;;;;;14.00;7.55;;;;;;;;;;4978252;28;20022;-63
2021/08/12 06:52:32;;;;;;;16.30;6.38;;;;;;;;;;4975584;28;20034;-63
2021/08/12 06:55:02;;;;;;;12.68;6.35;;;;;;;;;;4977772;28;20037;-63
2021/08/12 06:57:28;;;;;;;9.82;6.18;;;;;;;;;;4978086;28;20030;-64
2021/08/12 06:59:57;;;;;;;12.18;6.43;;;;;;;;;;4978257;28;20042;-65
2021/08/12 07:02:22;;;;;;;10.43;6.38;;;;;;;;;;4976349;28;20531;-65
2021/08/12 07:04:48;;;;;;;10.32;5.63;;;;;;;;;;4961447;28;20057;-63
2021/08/12 07:07:16;;;;;;;12.30;6.35;;;;;;;;;;4981664;28;20161;-64
2021/08/12 07:09:43;;;;;;;12.43;6.72;;;;;;;;;;4974185;28;20652;-64
2021/08/12 07:12:10;;;;;;;12.13;6.43;;;;;;;;;;4976386;28;21220;-64
2021/08/12 07:14:36;;;;;;;14.65;6.82;;;;;;;;;;4992015;28;20083;-65
2021/08/12 07:17:05;;;;;;;10.80;6.40;;;;;;;;;;4977422;28;20068;-64
2021/08/12 07:19:35;;;;;;;11.88;6.18;;;;;;;;;;4978626;28;20459;-64
2021/08/12 07:22:03;;;;;;;9.32;5.85;;;;;;;;;;4991997;28;20736;-63
2021/08/12 07:24:29;;;;;;;12.20;6.47;;;;;;;;;;4992913;28;20492;-64
2021/08/12 07:26:55;;;;;;;9.93;6.00;;;;;;;;;;4976974;28;20065;-63
2021/08/12 07:29:23;;;;;;;14.48;6.47;;;;;;;;;;4977959;28;20687;-64
2021/08/12 07:31:50;;;;;;;10.07;5.93;;;;;;;;;;4978604;28;20029;-65
2021/08/12 07:34:15;;;;;;;13.27;5.80;;;;;;;;;;4979240;28;20100;-65
2021/08/12 07:36:42;;;;;;;12.38;5.97;;;;;;;;;;4996196;28;20037;-65
2021/08/12 07:39:08;;;;;;;10.07;6.32;;;;;;;;;;4980995;28;20033;-64
2021/08/12 07:41:36;;;;;;;8.88;5.72;;;;;;;;;;4995920;28;21203;-64
2021/08/12 07:44:04;;;;;;;10.52;6.15;;;;;;;;;;4997563;28;20054;-65
2021/08/12 07:46:32;;;;;;;12.45;6.38;;;;;;;;;;4996215;28;20017;-64
2021/08/12 07:48:58;;;;;;;9.13;5.55;;;;;;;;;;4967012;28;20041;-64
2021/08/12 07:51:25;;;;;;;8.75;5.70;;;;;;;;;;4996868;28;20350;-64
2021/08/12 07:53:53;;;;;;;9.18;5.65;;;;;;;;;;4996278;28;20040;-64
2021/08/12 07:56:22;;;;;;;9.68;5.88;;;;;;;;;;4980847;28;20030;-64
2021/08/12 07:58:51;;;;;;;8.57;5.55;;;;;;;;;;4997935;28;20029;-64
2021/08/12 08:01:26;;;;;;;10.65;5.65;;;;;;;;;;4998082;28;20047;-64
2021/08/12 08:03:59;;;;;;;8.32;5.22;;;;;;;;;;4986906;28;20033;-64
2021/08/12 08:06:25;;;;;;;9.40;5.38;;;;;;;;;;4971549;28;20036;-64
2021/08/12 08:08:50;;;;;;;9.85;5.85;;;;;;;;;;4997608;28;22827;-64
2021/08/12 08:11:17;;;;;;;7.05;4.97;;;;;;;;;;4979620;28;20060;-63
2021/08/12 08:13:50;;;;;;;9.10;5.25;;;;;;;;;;4984360;28;20117;-62
2021/08/12 08:16:21;;;;;;;7.45;4.72;;;;;;;;;;4997493;28;20045;-62
2021/08/12 08:18:46;;;;;;;12.23;5.90;;;;;;;;;;4997798;28;20048;-63
2021/08/12 08:21:17;;;;;;;6.50;4.88;;;;;;;;;;4979227;28;20025;-64
2021/08/12 08:23:47;;;;;;;8.68;5.22;;;;;;;;;;4996884;28;20030;-63
2021/08/12 08:26:13;;;;;;;8.40;5.55;;;;;;;;;;4996605;28;20497;-61
2021/08/12 08:28:41;;;;;;;7.90;5.03;;;;;;;;;;4979967;28;20021;-61
2021/08/12 08:31:09;;;;;;;8.48;5.15;;;;;;;;;;4998395;28;20040;-63
2021/08/12 08:33:35;;;;;;;10.27;5.25;;;;;;;;;;4994668;28;20041;-63
2021/08/12 08:36:02;;;;;;;10.77;5.90;;;;;;;;;;4980654;28;21143;-62
2021/08/12 08:38:30;;;;;;;8.32;6.03;;;;;;;;;;4983342;28;20022;-62
2021/08/12 08:40:59;;;;;;;12.82;5.60;;;;;;;;;;4996045;28;20037;-61
2021/08/12 08:43:31;;;;;;;10.18;5.38;;;;;;;;;;4997685;28;20034;-62
2021/08/12 08:45:58;;;;;;;13.43;6.40;;;;;;;;;;4994324;28;20030;-62
2021/08/12 08:48:25;;;;;;;10.63;6.28;;;;;;;;;;4997171;28;20610;-62
2021/08/12 08:50:51;;;;;;;10.18;5.85;;;;;;;;;;4980877;28;20046;-62
2021/08/12 08:53:20;;;;;;;8.98;6.03;;;;;;;;;;4994198;28;20021;-62
2021/08/12 08:55:46;;;;;;;12.73;6.03;;;;;;;;;;4997758;28;20532;-62
2021/08/12 08:58:14;;;;;;;6.32;4.82;;;;;;;;;;4983010;28;20737;-62
2021/08/12 09:00:44;;;;;;;8.70;5.55;;;;;;;;;;5000168;28;20594;-62
2021/08/12 09:03:10;;;;;;;7.93;4.75;;;;;;;;;;4999520;28;20134;-62
2021/08/12 09:05:36;;;;;;;6.45;4.07;;;;;;;;;;4987247;28;20029;-61
2021/08/12 09:08:04;;;;;;;9.45;5.25;;;;;;;;;;4999394;28;20037;-62
2021/08/12 09:10:29;;;;;;;6.95;4.55;;;;;;;;;;4998302;28;20033;-63
2021/08/12 09:12:57;;;;;;;5.50;3.92;;;;;;;;;;4983240;28;20041;-62
2021/08/12 09:15:24;;;;;;;4.90;4.13;;;;;;;;;;5000999;28;20053;-61
2021/08/12 09:17:50;;;;;;;6.95;4.35;;;;;;;;;;4997934;28;20130;-62
2021/08/12 09:20:23;;;;;;;6.90;4.35;;;;;;;;;;4983189;28;20045;-61
2021/08/12 09:22:49;;;;;;;8.50;4.60;;;;;;;;;;4997071;28;20041;-62
2021/08/12 09:25:15;;;;;;;6.55;4.40;;;;;;;;;;5000057;28;20033;-61
2021/08/12 09:27:43;;;;;;;11.82;5.38;;;;;;;;;;4982370;28;20033;-61
2021/08/12 09:30:15;;;;;;;9.10;4.32;;;;;;;;;;4999978;28;20528;-61
2021/08/12 09:32:47;;;;;;;6.45;4.18;;;;;;;;;;4997584;28;20132;-61
2021/08/12 09:35:34;;;;;;;9.73;4.50;;;;;;;;;;5000094;28;20071;-59
2021/08/12 09:38:08;;;;;;;6.80;4.32;;;;;;;;;;4978893;28;20037;-60
2021/08/12 09:40:33;;;;;;;8.95;5.05;;;;;;;;;;4982148;28;20121;-62
2021/08/12 09:43:01;;;;;;;5.63;4.72;;;;;;;;;;4997139;28;20907;-62
2021/08/12 09:45:27;;;;;;;7.35;4.50;;;;;;;;;;4998701;28;20160;-62
2021/08/12 09:47:54;;;;;;;9.43;4.53;;;;;;;;;;5000535;28;20030;-61
2021/08/12 09:50:27;;;;;;;7.53;4.25;;;;;;;;;;4999016;28;20071;-60
2021/08/12 09:52:55;;;;;;;6.60;3.85;;;;;;;;;;4997324;28;20133;-61
2021/08/12 09:55:21;;;;;;;7.18;3.40;;;;;;;;;;4997555;28;20087;-62
2021/08/12 09:57:49;;;;;;;9.45;4.22;;;;;;;;;;4998818;28;20480;-61
2021/08/12 10:00:15;;;;;;;6.20;3.72;;;;;;;;;;4999590;28;21942;-62
2021/08/12 10:02:41;;;;;;;7.50;4.03;;;;;;;;;;4998413;28;20115;-62
2021/08/12 10:05:08;;;;;;;8.73;3.60;;;;;;;;;;4998194;28;20615;-62
2021/08/12 10:07:38;;;;;;;5.80;3.40;;;;;;;;;;4995661;28;20033;-60
2021/08/12 10:10:20;;;;;;;8.48;3.40;;;;;;;;;;4988763;28;20044;-61
2021/08/12 10:12:47;;;;;;;7.60;3.38;;;;;;;;;;4995595;28;20117;-61
2021/08/12 10:15:13;;;;;;;5.63;2.83;;;;;;;;;;4974871;28;20057;-61
2021/08/12 10:17:40;;;;;;;4.78;3.15;;;;;;;;;;4997893;28;20499;-60
2021/08/12 10:20:09;;;;;;;6.03;3.30;;;;;;;;;;4999354;28;20026;-62
2021/08/12 10:22:35;;;;;;;6.15;3.20;;;;;;;;;;4981354;28;20433;-61
2021/08/12 10:25:01;;;;;;;4.32;3.03;;;;;;;;;;4998482;28;20132;-62
2021/08/12 10:27:27;;;;;;;7.43;3.40;;;;;;;;;;4980491;28;20064;-62
2021/08/12 10:29:52;;;;;;;5.55;3.13;;;;;;;;;;4981241;28;20843;-62
2021/08/12 10:32:19;;;;;;;5.25;3.28;;;;;;;;;;4995579;28;20040;-62
2021/08/12 10:34:49;;;;;;;3.67;2.90;;;;;;;;;;4998608;28;20033;-62
2021/08/12 10:37:17;;;;;;;9.30;3.58;;;;;;;;;;4998747;28;20032;-62
2021/08/12 10:39:43;;;;;;;6.70;3.33;;;;;;;;;;4969207;28;20033;-60
2021/08/12 10:42:08;;;;;;;5.53;3.10;;;;;;;;;;4996126;28;20095;-60
2021/08/12 10:44:34;;;;;;;7.15;4.28;;;;;;;;;;4981415;28;20873;-60
2021/08/12 10:47:00;;;;;;;7.50;4.20;;;;;;;;;;4998368;28;20056;-60
2021/08/12 10:49:30;;;;;;;6.95;4.50;;;;;;;;;;4999131;28;20113;-61
2021/08/12 10:52:00;;;;;;;6.55;4.40;;;;;;;;;;4999589;28;22019;-61
2021/08/12 10:54:25;;;;;;;11.02;4.10;;;;;;;;;;4998768;28;20547;-61
2021/08/12 10:57:11;;;;;;;7.00;4.20;;;;;;;;;;4981890;28;20029;-61
2021/08/12 10:59:38;;;;;;;7.40;4.93;;;;;;;;;;4977298;28;20033;-62
2021/08/12 11:02:22;;;;;;;6.25;4.55;;;;;;;;;;4996284;28;20045;-61
2021/08/12 11:04:52;;;;;;;6.85;3.92;;;;;;;;;;4980741;28;20754;-62
2021/08/12 11:07:38;;;;;;;7.88;4.25;;;;;;;;;;4995816;28;20040;-62
2021/08/12 11:10:04;;;;;;;6.47;3.80;;;;;;;;;;4996780;28;20160;-62
2021/08/12 11:12:49;;;;;;;5.40;3.00;;;;;;;;;;4994943;28;20180;-63
2021/08/12 11:15:15;;;;;;;4.40;3.72;;;;;;;;;;4995978;28;20685;-61
2021/08/12 11:17:53;;;;;;;5.60;2.92;;;;;;;;;;4986142;28;20040;-61
2021/08/12 11:20:31;;;;;;;6.93;3.38;;;;;;;;;;4994297;28;20025;-61
2021/08/12 11:22:57;;;;;;;4.47;2.63;;;;;;;;;;4996064;28;20073;-62
2021/08/12 11:25:42;;;;;;;4.18;2.80;;;;;;;;;;4995086;28;20030;-62
2021/08/12 11:28:35;;;;;;;8.13;2.70;;;;;;;;;;4997058;28;20034;-63
2021/08/12 11:31:00;;;;;;;6.15;2.50;;;;;;;;;;4979219;28;20037;-63
2021/08/12 11:33:29;;;;;;;4.82;2.58;;;;;;;;;;4996910;28;20030;-62
2021/08/12 11:36:05;;;;;;;7.03;2.60;;;;;;;;;;4997759;28;20076;-61
2021/08/12 11:38:43;;;;;;;3.30;1.90;;;;;;;;;;4979864;28;20989;-62
2021/08/12 11:41:08;;;;;;;4.45;2.03;;;;;;;;;;4997417;28;20075;-62
2021/08/12 11:43:36;;;;;;;5.32;1.98;;;;;;;;;;4994727;28;20033;-62
2021/08/12 11:46:04;;;;;;;6.03;1.75;;;;;;;;;;4997710;28;20037;-63
2021/08/12 11:48:36;;;;;;;4.85;1.92;;;;;;;;;;4979559;28;20017;-62
2021/08/12 11:51:02;;;;;;;3.20;1.92;;;;;;;;;;4979169;28;20077;-63
2021/08/12 11:53:44;;;;;;;2.70;1.70;;;;;;;;;;4979263;28;20034;-63
2021/08/12 11:56:18;;;;;;;2.85;1.50;;;;;;;;;;4983225;28;20217;-63
2021/08/12 11:58:45;;;;;;;2.35;1.48;;;;;;;;;;4995118;28;20053;-63
2021/08/12 12:01:19;;;;;;;2.97;1.48;;;;;;;;;;4997312;28;20025;-63
2021/08/12 12:03:46;;;;;;;2.38;1.25;;;;;;;;;;4997848;28;20127;-62
2021/08/12 12:06:27;;;;;;;3.58;1.60;;;;;;;;;;4996927;28;21940;-63
2021/08/12 12:08:52;;;;;;;3.60;1.33;;;;;;;;;;4996301;28;20083;-63
2021/08/12 12:11:20;;;;;;;1.60;1.38;;;;;;;;;;4994880;28;20121;-62
2021/08/12 12:13:47;;;;;;;2.40;1.38;;;;;;;;;;4995603;28;20022;-63
2021/08/12 12:16:14;;;;;;;2.33;1.70;;;;;;;;;;4979732;28;20080;-63
2021/08/12 12:18:43;;;;;;;3.15;1.90;;;;;;;;;;4995354;28;20025;-63
2021/08/12 12:21:13;;;;;;;1.80;1.60;;;;;;;;;;4984733;28;20053;-63
2021/08/12 12:23:41;;;;;;;2.50;1.70;;;;;;;;;;4996117;28;20037;-63
2021/08/12 12:26:07;;;;;;;2.88;1.55;;;;;;;;;;4996393;28;20087;-63
2021/08/12 12:28:40;;;;;;;3.15;1.50;;;;;;;;;;4979647;28;20448;-63
2021/08/12 12:31:14;;;;;;;2.42;1.80;;;;;;;;;;4980613;28;20477;-63
2021/08/12 12:33:42;;;;;;;2.97;2.00;;;;;;;;;;5000568;28;20028;-63
2021/08/12 12:36:10;;;;;;;3.47;2.30;;;;;;;;;;4999752;28;20100;-64
2021/08/12 12:38:36;;;;;;;4.78;2.03;;;;;;;;;;4999243;28;20188;-64
2021/08/12 12:41:06;;;;;;;4.20;2.15;;;;;;;;;;4982461;28;20064;-63
2021/08/12 12:43:34;;;;;;;5.22;2.20;;;;;;;;;;4997643;28;20185;-62
2021/08/12 12:46:00;;;;;;;5.70;2.72;;;;;;;;;;5001912;28;20051;-63
2021/08/12 12:48:32;;;;;;;3.80;2.33;;;;;;;;;;5001469;28;20025;-64
2021/08/12 12:50:58;;;;;;;3.00;2.53;;;;;;;;;;4997528;28;20034;-61
2021/08/12 12:53:34;;;;;;;4.63;2.55;;;;;;;;;;4999826;28;20049;-62
2021/08/12 12:56:06;;;;;;;4.10;2.45;;;;;;;;;;4998458;28;20065;-62
2021/08/12 12:58:36;;;;;;;4.55;2.67;;;;;;;;;;4985232;28;20507;-61
2021/08/12 13:01:03;;;;;;;4.07;2.55;;;;;;;;;;5001349;28;20534;-61
2021/08/12 13:03:31;;;;;;;4.53;2.45;;;;;;;;;;4999461;28;20400;-62
2021/08/12 13:06:00;;;;;;;7.03;2.78;;;;;;;;;;5002263;28;20029;-62
2021/08/12 13:08:33;;;;;;;5.25;2.60;;;;;;;;;;4999839;28;20144;-61
2021/08/12 13:11:19;;;;;;;4.57;2.08;;;;;;;;;;5002857;28;20041;-63
2021/08/12 13:13:47;;;;;;;4.85;2.55;;;;;;;;;;4967070;28;20917;-63
2021/08/12 13:16:14;;;;;;;3.10;2.10;;;;;;;;;;4982836;28;20066;-63
2021/08/12 13:18:46;;;;;;;2.53;2.05;;;;;;;;;;4999549;28;20029;-63
2021/08/12 13:21:31;;;;;;;11.07;6.38;;;;;;;;;;4989355;28;20038;-62
2021/08/12 13:23:58;;;;;;;13.27;9.75;;;;;;;;;;4996396;28;20041;-62
2021/08/12 13:26:45;;;;;;;3.45;2.30;;;;;;;;;;4981685;28;20112;-62
2021/08/12 13:29:11;;;;;;;4.63;2.10;;;;;;;;;;4998663;28;20037;-62
2021/08/12 13:31:47;;;;;;;6.57;2.63;;;;;;;;;;4998932;28;20037;-61
2021/08/12 13:34:14;;;;;;;7.22;2.45;;;;;;;;;;5000930;28;20563;-61
2021/08/12 13:36:41;;;;;;;4.18;1.88;;;;;;;;;;5000400;28;20038;-61
2021/08/12 13:39:07;;;;;;;4.03;2.25;;;;;;;;;;4999532;28;20033;-61
2021/08/12 13:41:43;;;;;;;5.70;1.98;;;;;;;;;;4985920;28;20530;-61
2021/08/12 13:44:08;;;;;;;3.05;1.60;;;;;;;;;;5000255;28;20032;-61
2021/08/12 13:46:36;;;;;;;3.58;2.05;;;;;;;;;;5000535;28;20029;-59
2021/08/12 13:49:07;;;;;;;4.57;2.10;;;;;;;;;;4997452;28;20033;-61
2021/08/12 13:51:35;;;;;;;3.83;2.00;;;;;;;;;;4999711;28;20842;-61
2021/08/12 13:54:01;;;;;;;8.20;2.20;;;;;;;;;;4998896;28;20060;-61
2021/08/12 13:56:29;;;;;;;4.53;2.38;;;;;;;;;;4998211;28;20033;-60
2021/08/12 13:58:54;;;;;;;4.82;2.35;;;;;;;;;;5002155;28;20041;-60
2021/08/12 14:01:20;;;;;;;2.83;1.85;;;;;;;;;;4999920;28;20532;-60
2021/08/12 14:03:48;;;;;;;4.03;2.30;;;;;;;;;;4982968;28;21053;-61
2021/08/12 14:06:16;;;;;;;3.90;1.90;;;;;;;;;;4999640;28;20449;-61
2021/08/12 14:08:41;;;;;;;1.98;1.73;;;;;;;;;;4985251;28;20589;-61
2021/08/12 14:11:09;;;;;;;3.90;1.58;;;;;;;;;;4999886;28;20107;-60
2021/08/12 14:13:35;;;;;;;1.92;1.17;;;;;;;;;;4979567;28;20109;-60
2021/08/12 14:16:03;;;;;;;3.20;1.52;;;;;;;;;;4997125;28;20780;-60
2021/08/12 14:18:34;;;;;;;3.40;1.85;;;;;;;;;;4982293;28;20662;-61
2021/08/12 14:21:00;;;;;;;4.65;1.77;;;;;;;;;;4980698;28;20049;-61
2021/08/12 14:23:28;;;;;;;6.75;1.90;;;;;;;;;;4981326;28;20025;-60
2021/08/12 14:25:56;;;;;;;3.20;1.50;;;;;;;;;;4979040;28;20468;-60
2021/08/12 14:28:21;;;;;;;2.45;1.30;;;;;;;;;;4998071;28;20799;-61
2021/08/12 14:30:47;;;;;;;2.28;1.30;;;;;;;;;;4965630;28;20029;-60
2021/08/12 14:33:14;;;;;;;5.22;1.40;;;;;;;;;;4997017;28;20038;-61
2021/08/12 14:35:45;;;;;;;3.15;1.58;;;;;;;;;;4996851;28;20680;-60
2021/08/12 14:38:11;;;;;;;3.20;1.20;;;;;;;;;;4995590;28;20026;-60
2021/08/12 14:40:37;;;;;;;3.20;1.50;;;;;;;;;;4998758;28;20107;-60